Time;durP1;ratioP1;P1;durP2;ratioP2;P2;SDS_P1;SDS_P2;PMS_P1;PMS_P2;Temp;Humidity;BMP_temperature;BMP_pressure;BME280_temperature;BME280_humidity;BME280_pressure;Samples;Min_cycle;Max_cycle;Signal;HPM_P1;HPM_P2
2022/09/30 00:01:54;;;;;;;2.80;1.40;;;14.50;99.90;;;;;;5032572;28;20057;-77
2022/09/30 00:04:24;;;;;;;6.55;1.40;;;14.50;99.90;;;;;;5039045;28;20069;-77
2022/09/30 00:06:52;;;;;;;4.65;1.42;;;14.50;99.90;;;;;;5035935;28;20478;-76
2022/09/30 00:09:20;;;;;;;3.67;1.40;;;14.40;99.90;;;;;;5034926;28;20065;-77
2022/09/30 00:11:47;;;;;;;3.35;1.17;;;14.30;99.90;;;;;;5036355;28;20041;-76
2022/09/30 00:14:19;;;;;;;3.45;1.40;;;14.30;99.90;;;;;;5038961;28;20045;-77
2022/09/30 00:16:47;;;;;;;4.65;1.40;;;14.30;99.90;;;;;;5037397;28;20037;-76
2022/09/30 00:19:15;;;;;;;7.03;1.70;;;14.20;99.90;;;;;;5034192;28;20049;-76
2022/09/30 00:21:43;;;;;;;5.53;1.73;;;14.20;99.90;;;;;;5035512;28;20048;-77
2022/09/30 00:24:10;;;;;;;2.65;1.13;;;14.20;99.90;;;;;;5036413;28;20099;-78
2022/09/30 00:26:37;;;;;;;3.00;1.20;;;14.20;99.90;;;;;;5035402;28;20416;-76
2022/09/30 00:29:05;;;;;;;4.43;1.05;;;14.20;99.90;;;;;;5036296;28;20460;-75
2022/09/30 00:31:34;;;;;;;3.72;0.90;;;14.20;99.90;;;;;;5037617;28;20068;-75
2022/09/30 00:34:08;;;;;;;4.68;1.00;;;14.20;99.90;;;;;;5035975;28;20065;-76
2022/09/30 00:36:37;;;;;;;6.13;1.23;;;14.20;99.90;;;;;;5036028;28;20068;-76
2022/09/30 00:39:06;;;;;;;3.13;0.88;;;14.20;99.90;;;;;;5034240;28;20487;-75
2022/09/30 00:41:34;;;;;;;4.47;1.35;;;14.10;99.90;;;;;;5036313;28;20136;-76
2022/09/30 00:44:02;;;;;;;2.95;1.08;;;14.20;99.90;;;;;;5034444;28;20084;-76
2022/09/30 00:46:36;;;;;;;3.03;1.40;;;14.10;99.90;;;;;;5034712;28;20115;-77
2022/09/30 00:49:10;;;;;;;4.35;1.00;;;14.10;99.90;;;;;;5050830;28;20564;-76
2022/09/30 00:51:42;;;;;;;6.35;1.02;;;14.10;99.90;;;;;;5031403;28;20148;-76
2022/09/30 00:54:13;;;;;;;2.30;1.00;;;14.10;99.90;;;;;;5033707;28;20073;-77
2022/09/30 00:56:44;;;;;;;2.33;0.93;;;14.10;99.90;;;;;;5035766;28;20067;-77
2022/09/30 00:59:16;;;;;;;2.88;1.08;;;14.10;99.90;;;;;;5051039;28;20077;-76
2022/09/30 01:01:45;;;;;;;4.07;1.00;;;14.10;99.90;;;;;;5035464;28;20361;-75
2022/09/30 01:04:14;;;;;;;3.65;1.00;;;14.10;99.90;;;;;;5035632;28;20069;-76
2022/09/30 01:06:42;;;;;;;4.38;1.33;;;14.10;99.90;;;;;;5034307;28;20048;-76
2022/09/30 01:09:11;;;;;;;22.40;16.63;;;14.10;99.90;;;;;;5035702;28;20480;-77
2022/09/30 01:11:38;;;;;;;27.33;18.08;;;14.10;99.90;;;;;;5035228;28;20045;-76
2022/09/30 01:14:08;;;;;;;3.38;0.75;;;14.10;99.90;;;;;;5035307;28;20057;-76
2022/09/30 01:16:52;;;;;;;2.38;0.90;;;14.10;99.90;;;;;;5051933;28;20140;-78
2022/09/30 01:19:44;;;;;;;3.53;1.33;;;14.10;99.90;;;;;;5035491;28;20072;-77
2022/09/30 01:22:25;;;;;;;4.53;1.00;;;14.00;99.90;;;;;;5036700;28;20061;-78
2022/09/30 01:25:24;;;;;;;3.65;1.10;;;14.00;99.90;;;;;;5035775;28;20119;-78
2022/09/30 01:28:24;;;;;;;4.07;0.70;;;14.00;99.90;;;;;;5042318;28;20069;-77
2022/09/30 01:31:10;;;;;;;7.60;1.20;;;14.00;99.90;;;;;;5037230;28;20041;-77
2022/09/30 01:33:46;;;;;;;4.78;0.73;;;13.90;99.90;;;;;;5052852;28;20099;-78
2022/09/30 01:36:33;;;;;;;2.40;0.88;;;13.90;99.90;;;;;;5052848;28;20488;-77
2022/09/30 01:39:13;;;;;;;3.95;1.00;;;13.90;99.90;;;;;;5071777;28;20046;-77
2022/09/30 01:41:53;;;;;;;2.55;0.80;;;14.00;99.90;;;;;;5038125;28;20068;-77
2022/09/30 01:44:29;;;;;;;3.85;1.05;;;14.10;99.90;;;;;;5033262;28;20048;-80
2022/09/30 01:47:00;;;;;;;;;;;14.10;99.90;;;;;;5051210;28;20056;-77
2022/09/30 01:49:33;;;;;;;1.90;0.90;;;14.20;99.90;;;;;;5035482;28;20390;-77
2022/09/30 01:52:05;;;;;;;1.77;0.70;;;14.20;99.90;;;;;;5034024;28;20481;-76
2022/09/30 01:54:38;;;;;;;4.22;0.98;;;14.20;99.90;;;;;;5035617;28;20041;-77
2022/09/30 01:57:11;;;;;;;3.58;0.82;;;14.20;99.90;;;;;;5033134;28;20054;-76
2022/09/30 01:59:45;;;;;;;8.20;1.02;;;14.20;99.90;;;;;;5033480;28;20053;-76
2022/09/30 02:02:18;;;;;;;3.78;1.27;;;14.20;99.90;;;;;;5034360;28;20100;-76
2022/09/30 02:04:50;;;;;;;3.65;1.92;;;14.20;99.90;;;;;;5033173;28;20042;-76
2022/09/30 02:07:23;;;;;;;4.15;2.35;;;14.10;99.90;;;;;;5033583;28;20048;-75
2022/09/30 02:09:56;;;;;;;7.97;2.10;;;14.10;99.90;;;;;;5034240;28;20551;-76
2022/09/30 02:12:28;;;;;;;7.40;2.30;;;14.00;99.90;;;;;;5034572;28;20053;-76
2022/09/30 02:15:00;;;;;;;4.13;1.33;;;14.10;99.90;;;;;;5034769;28;20041;-76
2022/09/30 02:17:35;;;;;;;2.95;1.60;;;14.00;99.90;;;;;;5033412;28;20128;-76
2022/09/30 02:20:07;;;;;;;3.38;1.20;;;14.00;99.90;;;;;;5035226;28;20041;-77
2022/09/30 02:22:42;;;;;;;3.40;1.40;;;14.00;99.90;;;;;;5025487;28;20061;-76
2022/09/30 02:25:16;;;;;;;3.72;1.40;;;14.00;99.90;;;;;;5035250;28;20437;-77
2022/09/30 02:27:48;;;;;;;2.92;1.50;;;14.10;99.90;;;;;;5049248;28;20046;-76
2022/09/30 02:30:15;;;;;;;3.42;1.35;;;14.10;99.90;;;;;;5030077;28;20053;-76
2022/09/30 02:32:49;;;;;;;4.82;1.35;;;14.20;99.90;;;;;;5014159;28;20046;-77
2022/09/30 02:35:23;;;;;;;7.90;1.92;;;14.20;99.90;;;;;;5029318;28;20053;-75
2022/09/30 02:37:54;;;;;;;4.53;1.73;;;14.20;99.90;;;;;;5029768;28;20132;-76
2022/09/30 02:40:26;;;;;;;4.53;1.50;;;14.20;99.90;;;;;;5032774;28;20049;-76
2022/09/30 02:42:54;;;;;;;4.93;1.95;;;14.20;99.90;;;;;;5037285;28;20045;-76
2022/09/30 02:45:23;;;;;;;6.97;2.30;;;14.20;99.90;;;;;;5037437;28;20045;-77
2022/09/30 02:48:05;;;;;;;7.03;2.03;;;14.30;99.90;;;;;;5037956;28;20041;-76
2022/09/30 02:50:36;;;;;;;5.45;2.40;;;14.30;99.90;;;;;;5038744;28;20045;-79
2022/09/30 02:53:17;;;;;;;5.72;2.03;;;14.30;99.90;;;;;;5038680;28;20045;-76
2022/09/30 02:56:01;;;;;;;4.88;2.47;;;14.30;99.90;;;;;;5038239;28;20053;-78
2022/09/30 02:58:29;;;;;;;5.95;2.85;;;14.30;99.90;;;;;;5039621;28;20049;-77
2022/09/30 03:00:57;;;;;;;6.30;2.22;;;14.30;99.90;;;;;;5038254;28;20041;-76
2022/09/30 03:03:29;;;;;;;8.85;2.20;;;14.40;99.90;;;;;;5037883;28;20049;-77
2022/09/30 03:05:57;;;;;;;7.50;2.42;;;14.40;99.90;;;;;;5054515;28;20049;-77
2022/09/30 03:08:24;;;;;;;6.57;2.35;;;14.40;99.90;;;;;;5036896;28;20049;-76
2022/09/30 03:10:52;;;;;;;4.93;2.55;;;14.40;99.90;;;;;;5038354;28;20440;-76
2022/09/30 03:13:56;;;;;;;7.05;3.10;;;14.50;99.90;;;;;;5052894;28;20122;-76
2022/09/30 03:16:37;;;;;;;5.97;2.90;;;14.50;99.90;;;;;;5016623;28;20104;-76
2022/09/30 03:19:29;;;;;;;5.13;2.40;;;14.50;99.90;;;;;;5038852;28;20041;-79
2022/09/30 03:22:14;;;;;;;5.93;2.45;;;14.50;99.90;;;;;;5042301;28;20103;-77
2022/09/30 03:25:05;;;;;;;5.82;2.50;;;14.40;99.90;;;;;;5032128;28;20615;-77
2022/09/30 03:27:41;;;;;;;5.15;2.35;;;14.40;99.90;;;;;;5016444;28;20501;-77
2022/09/30 03:30:14;;;;;;;8.43;3.13;;;14.50;99.90;;;;;;5047963;28;20041;-76
2022/09/30 03:32:54;;;;;;;7.13;2.30;;;14.50;99.90;;;;;;5026558;28;20057;-76
2022/09/30 03:35:31;;;;;;;5.32;2.35;;;14.50;99.90;;;;;;5031592;28;20065;-76
2022/09/30 03:38:04;;;;;;;5.43;2.67;;;14.60;99.90;;;;;;5021541;28;20121;-77
2022/09/30 03:40:39;;;;;;;4.43;2.80;;;14.60;99.90;;;;;;5037294;28;20046;-76
2022/09/30 03:43:12;;;;;;;5.43;3.03;;;14.60;99.90;;;;;;5035411;28;20037;-78
2022/09/30 03:45:45;;;;;;;7.60;3.65;;;14.60;99.90;;;;;;5029455;28;20059;-76
2022/09/30 03:48:16;;;;;;;6.80;4.20;;;14.70;99.90;;;;;;5032167;28;20049;-76
2022/09/30 03:50:45;;;;;;;8.65;4.07;;;14.70;99.90;;;;;;5028858;28;20037;-76
2022/09/30 03:53:13;;;;;;;7.45;3.72;;;14.70;99.90;;;;;;5017034;28;20096;-76
2022/09/30 03:55:47;;;;;;;7.60;3.33;;;14.80;99.90;;;;;;5048262;28;20073;-76
2022/09/30 03:58:15;;;;;;;6.55;3.10;;;14.70;99.90;;;;;;5059889;28;20050;-76
2022/09/30 04:00:48;;;;;;;5.90;3.05;;;14.70;99.90;;;;;;5063742;28;20053;-77
2022/09/30 04:03:17;;;;;;;6.22;3.10;;;14.60;99.90;;;;;;5057757;22;21793;-75
2022/09/30 04:05:46;;;;;;;6.03;3.60;;;14.60;99.90;;;;;;5089476;28;20036;-75
2022/09/30 04:08:13;;;;;;;4.47;2.88;;;14.50;99.90;;;;;;5084139;28;20082;-75
2022/09/30 04:10:41;;;;;;;7.60;3.30;;;14.50;99.90;;;;;;5092300;28;20102;-75
2022/09/30 04:13:09;;;;;;;5.97;3.60;;;14.40;99.90;;;;;;5074512;28;20040;-75
2022/09/30 04:15:36;;;;;;;6.80;4.00;;;14.50;99.90;;;;;;5063717;28;20040;-75
2022/09/30 04:18:05;;;;;;;8.27;4.47;;;14.40;99.90;;;;;;5057638;28;20048;-75
2022/09/30 04:20:33;;;;;;;9.02;4.40;;;14.30;99.90;;;;;;5065424;28;20483;-75
2022/09/30 04:23:02;;;;;;;7.20;4.13;;;14.20;99.90;;;;;;5064133;28;20044;-75
2022/09/30 04:25:31;;;;;;;6.03;4.57;;;14.10;99.90;;;;;;5061174;28;20410;-75
2022/09/30 04:27:58;;;;;;;7.10;4.63;;;14.00;99.90;;;;;;5073358;28;20049;-74
2022/09/30 04:30:26;;;;;;;7.03;5.10;;;13.90;99.90;;;;;;5070487;28;20190;-75
2022/09/30 04:32:53;;;;;;;8.57;5.40;;;13.90;99.90;;;;;;5045055;28;20048;-75
2022/09/30 04:35:20;;;;;;;9.48;5.43;;;13.90;99.90;;;;;;5043052;28;20454;-76
2022/09/30 04:37:48;;;;;;;11.02;5.90;;;13.80;99.90;;;;;;5068435;28;20055;-74
2022/09/30 04:40:17;;;;;;;10.88;5.22;;;13.80;99.90;;;;;;5068861;28;20043;-76
2022/09/30 04:42:46;;;;;;;8.32;5.53;;;13.90;99.90;;;;;;5037799;28;20535;-75
2022/09/30 04:45:14;;;;;;;8.45;5.65;;;13.90;99.90;;;;;;5056626;28;20041;-75
2022/09/30 04:47:45;;;;;;;9.77;5.78;;;13.80;99.90;;;;;;5056698;28;20100;-75
2022/09/30 04:50:12;;;;;;;8.25;6.32;;;13.80;99.90;;;;;;5038203;28;20155;-75
2022/09/30 04:52:43;;;;;;;15.98;6.70;;;13.70;99.90;;;;;;5038924;28;20060;-75
2022/09/30 04:55:10;;;;;;;8.38;6.03;;;13.70;99.90;;;;;;5055151;28;20083;-75
2022/09/30 04:57:39;;;;;;;9.23;6.40;;;13.70;99.90;;;;;;5037278;28;20052;-75
2022/09/30 05:00:08;;;;;;;11.98;6.93;;;13.70;99.90;;;;;;5037808;28;20500;-75
2022/09/30 05:02:36;;;;;;;10.65;7.03;;;13.70;99.90;;;;;;5034550;28;20098;-75
2022/09/30 05:05:03;;;;;;;10.63;6.65;;;13.60;99.90;;;;;;5058308;28;20057;-75
2022/09/30 05:07:31;;;;;;;13.52;7.68;;;13.60;99.90;;;;;;5055549;28;20065;-74
2022/09/30 05:09:58;;;;;;;9.77;7.35;;;13.60;99.90;;;;;;5055899;28;20111;-75
2022/09/30 05:12:26;;;;;;;11.75;7.28;;;13.60;99.90;;;;;;5055838;28;20053;-75
2022/09/30 05:14:55;;;;;;;11.30;8.48;;;13.60;99.90;;;;;;5038972;28;20040;-75
2022/09/30 05:17:22;;;;;;;11.48;7.47;;;13.60;99.90;;;;;;5058896;28;20048;-75
2022/09/30 05:19:49;;;;;;;9.07;6.20;;;13.60;99.90;;;;;;5058918;28;20048;-76
2022/09/30 05:22:17;;;;;;;13.60;7.63;;;13.60;99.90;;;;;;5059397;28;20102;-75
2022/09/30 05:24:44;;;;;;;15.98;11.45;;;13.60;99.90;;;;;;5040810;28;20053;-76
2022/09/30 05:27:11;;;;;;;16.75;11.50;;;13.60;99.90;;;;;;5060523;28;20045;-75
2022/09/30 05:29:39;;;;;;;33.92;27.90;;;13.60;99.90;;;;;;5067218;28;20070;-75
2022/09/30 05:32:07;;;;;;;33.53;29.67;;;13.70;99.90;;;;;;5059142;28;20044;-75
2022/09/30 05:34:35;;;;;;;42.40;33.42;;;13.80;99.90;;;;;;5069875;28;20056;-75
2022/09/30 05:37:03;;;;;;;44.40;34.50;;;13.80;99.90;;;;;;5069156;28;20040;-75
2022/09/30 05:39:30;;;;;;;36.53;32.55;;;13.90;99.90;;;;;;5046607;28;20064;-75
2022/09/30 05:41:58;;;;;;;37.75;29.75;;;14.00;99.90;;;;;;5070868;28;20064;-74
2022/09/30 05:44:25;;;;;;;37.45;30.85;;;14.00;99.90;;;;;;5058482;28;20110;-75
2022/09/30 05:46:52;;;;;;;35.72;31.58;;;14.10;99.90;;;;;;5067164;28;20531;-75
2022/09/30 05:49:21;;;;;;;31.27;27.02;;;14.10;99.90;;;;;;5075262;28;20044;-75
2022/09/30 05:51:49;;;;;;;23.25;18.20;;;14.20;99.90;;;;;;5077177;28;20104;-76
2022/09/30 05:54:16;;;;;;;18.40;14.80;;;14.30;99.90;;;;;;5059140;28;20090;-76
2022/09/30 05:56:44;;;;;;;18.73;13.55;;;14.30;99.90;;;;;;5076414;28;20051;-75
2022/09/30 05:59:12;;;;;;;21.75;15.95;;;14.40;99.90;;;;;;5074532;28;20174;-75
2022/09/30 06:01:39;;;;;;;23.30;16.50;;;14.60;99.90;;;;;;5056960;28;20055;-75
2022/09/30 06:04:06;;;;;;;14.98;11.02;;;14.80;99.90;;;;;;5074058;28;20055;-74
2022/09/30 06:06:35;;;;;;;25.90;21.60;;;15.00;99.90;;;;;;5044431;28;20131;-74
2022/09/30 06:09:04;;;;;;;16.40;10.15;;;15.00;99.90;;;;;;5057545;28;20051;-77
2022/09/30 06:11:31;;;;;;;13.10;10.40;;;15.00;99.90;;;;;;5050235;28;20048;-76
2022/09/30 06:13:59;;;;;;;13.07;8.57;;;15.10;99.90;;;;;;5065954;28;20040;-75
2022/09/30 06:16:26;;;;;;;15.68;8.45;;;15.30;99.90;;;;;;5071644;28;20037;-74
2022/09/30 06:18:54;;;;;;;12.38;8.70;;;15.40;99.90;;;;;;5074550;28;20098;-76
2022/09/30 06:21:21;;;;;;;13.35;7.07;;;15.60;99.90;;;;;;5072879;28;20509;-76
2022/09/30 06:23:50;;;;;;;9.20;6.25;;;15.70;99.90;;;;;;5073479;28;20044;-75
2022/09/30 06:26:17;;;;;;;9.65;5.88;;;15.90;99.90;;;;;;5072465;28;20396;-76
2022/09/30 06:28:45;;;;;;;10.20;6.10;;;16.10;99.90;;;;;;5055567;28;20529;-75
2022/09/30 06:31:13;;;;;;;10.82;5.90;;;16.30;99.90;;;;;;5074675;28;20105;-75
2022/09/30 06:33:41;;;;;;;10.40;5.88;;;16.50;99.90;;;;;;5074994;28;20041;-75
2022/09/30 06:36:09;;;;;;;11.18;5.90;;;16.80;99.90;;;;;;5074293;28;20116;-74
2022/09/30 06:38:38;;;;;;;9.45;6.53;;;16.90;99.90;;;;;;5073373;28;20075;-75
2022/09/30 06:41:08;;;;;;;10.43;5.85;;;16.90;99.90;;;;;;5074752;28;20525;-76
2022/09/30 06:43:36;;;;;;;10.07;4.43;;;17.20;99.90;;;;;;5071999;28;20064;-75
2022/09/30 06:46:03;;;;;;;10.48;6.15;;;17.50;99.90;;;;;;5072590;28;20040;-73
2022/09/30 06:48:30;;;;;;;11.85;5.63;;;17.70;99.90;;;;;;5072191;28;20045;-76
2022/09/30 06:50:59;;;;;;;13.68;5.50;;;17.70;99.90;;;;;;5073691;28;20094;-76
2022/09/30 06:53:28;;;;;;;16.50;10.20;;;18.00;99.90;;;;;;5072973;28;20596;-76
2022/09/30 06:55:56;;;;;;;9.43;4.65;;;18.30;99.90;;;;;;5073539;28;20040;-75
2022/09/30 06:58:25;;;;;;;7.28;3.97;;;18.30;99.90;;;;;;5061907;28;20112;-76
2022/09/30 07:01:00;;;;;;;5.78;3.92;;;18.50;99.90;;;;;;5063843;28;20099;-74
2022/09/30 07:03:29;;;;;;;11.40;4.60;;;18.70;99.90;;;;;;5062848;28;20057;-74
2022/09/30 07:05:58;;;;;;;8.85;4.47;;;18.90;99.90;;;;;;5056338;28;20492;-74
2022/09/30 07:08:28;;;;;;;11.13;7.18;;;18.50;99.90;;;;;;5068691;28;20411;-74
2022/09/30 07:10:56;;;;;;;7.57;4.20;;;18.40;99.90;;;;;;5057585;28;20054;-74
2022/09/30 07:13:25;;;;;;;8.10;3.88;;;18.50;99.90;;;;;;5063179;28;20045;-74
2022/09/30 07:15:53;;;;;;;8.18;4.05;;;18.70;99.90;;;;;;5070728;28;20044;-75
2022/09/30 07:18:20;;;;;;;8.20;3.42;;;18.80;99.90;;;;;;5070604;28;20047;-76
2022/09/30 07:20:52;;;;;;;6.40;3.30;;;18.80;99.90;;;;;;5053451;28;20051;-75
2022/09/30 07:23:20;;;;;;;7.88;3.65;;;19.10;99.90;;;;;;5054296;28;20041;-75
2022/09/30 07:25:52;;;;;;;8.18;4.05;;;19.20;99.90;;;;;;5052954;28;20041;-74
2022/09/30 07:28:20;;;;;;;7.30;3.53;;;19.40;99.90;;;;;;5054955;28;20053;-74
2022/09/30 07:30:50;;;;;;;8.50;3.70;;;19.40;99.90;;;;;;5056426;28;20052;-74
2022/09/30 07:33:17;;;;;;;6.05;3.55;;;19.30;99.90;;;;;;5057282;28;20060;-74
2022/09/30 07:35:52;;;;;;;10.80;4.20;;;19.50;99.90;;;;;;5055039;28;20045;-75
2022/09/30 07:38:20;;;;;;;7.25;3.97;;;19.50;99.90;;;;;;5055291;28;20053;-74
2022/09/30 07:40:56;;;;;;;7.03;3.67;;;19.70;99.90;;;;;;5056515;28;20053;-74
2022/09/30 07:43:26;;;;;;;9.68;3.65;;;20.10;99.90;;;;;;5055998;28;20045;-75
2022/09/30 07:45:55;;;;;;;6.30;3.30;;;20.10;99.90;;;;;;5038652;28;20089;-75
2022/09/30 07:48:45;;;;;;;15.68;3.53;;;20.20;99.90;;;;;;5055652;28;20052;-75
2022/09/30 07:51:15;;;;;;;9.70;4.90;;;20.10;99.90;;;;;;5056504;28;20045;-75
2022/09/30 07:53:44;;;;;;;5.15;2.40;;;20.20;99.90;;;;;;5056089;28;20041;-74
2022/09/30 07:56:13;;;;;;;7.18;4.20;;;20.30;99.90;;;;;;5056134;28;20041;-73
2022/09/30 07:58:41;;;;;;;11.27;3.90;;;20.40;99.90;;;;;;5056612;28;20083;-74
2022/09/30 08:01:10;;;;;;;11.45;3.85;;;20.40;99.90;;;;;;5038530;28;20084;-74
2022/09/30 08:03:39;;;;;;;8.85;3.83;;;20.60;99.90;;;;;;5055605;28;20099;-74
2022/09/30 08:06:08;;;;;;;8.70;3.00;;;20.70;99.90;;;;;;5054668;28;20041;-75
2022/09/30 08:08:36;;;;;;;8.73;4.13;;;20.70;99.90;;;;;;5056445;28;20048;-74
2022/09/30 08:11:05;;;;;;;9.40;3.90;;;20.70;99.90;;;;;;5056281;28;20044;-74
2022/09/30 08:13:34;;;;;;;7.60;3.83;;;20.70;99.90;;;;;;5054499;28;20048;-74
2022/09/30 08:16:02;;;;;;;9.73;3.90;;;20.60;99.90;;;;;;5055814;28;20399;-74
2022/09/30 08:18:31;;;;;;;7.32;3.70;;;20.60;99.90;;;;;;5055640;28;20049;-75
2022/09/30 08:21:03;;;;;;;6.70;3.33;;;20.60;99.90;;;;;;5038261;28;20361;-73
2022/09/30 08:23:30;;;;;;;10.25;3.75;;;20.50;99.90;;;;;;5039835;28;20049;-74
2022/09/30 08:26:02;;;;;;;7.22;3.00;;;20.30;99.90;;;;;;5055917;28;20041;-74
2022/09/30 08:28:30;;;;;;;5.07;2.70;;;20.20;99.90;;;;;;5037634;28;20152;-74
2022/09/30 08:31:04;;;;;;;8.48;3.10;;;20.20;99.90;;;;;;5055204;28;20072;-74
2022/09/30 08:33:33;;;;;;;8.90;2.90;;;20.20;99.90;;;;;;5037077;28;20045;-75
2022/09/30 08:36:05;;;;;;;6.78;2.40;;;20.20;99.90;;;;;;5054042;28;20045;-74
2022/09/30 08:38:33;;;;;;;7.60;2.90;;;20.20;99.90;;;;;;5037840;28;20403;-74
2022/09/30 08:41:23;;;;;;;9.88;3.15;;;20.30;99.90;;;;;;5054937;28;20080;-74
2022/09/30 08:44:01;;;;;;;6.05;2.78;;;20.30;99.90;;;;;;5048881;28;20392;-75
2022/09/30 08:46:37;;;;;;;10.75;3.20;;;20.40;99.90;;;;;;5055246;28;20041;-74
2022/09/30 08:49:21;;;;;;;5.90;3.88;;;20.50;99.90;;;;;;5055167;28;20037;-75
2022/09/30 08:51:50;;;;;;;17.00;5.88;;;20.60;99.90;;;;;;5055467;28;20045;-73
2022/09/30 08:54:21;;;;;;;6.28;3.30;;;20.60;99.90;;;;;;5054977;28;20044;-75
2022/09/30 08:56:49;;;;;;;10.00;3.05;;;20.60;99.90;;;;;;5054045;28;20099;-73
2022/09/30 08:59:28;;;;;;;7.40;3.20;;;20.60;99.90;;;;;;5039844;28;20091;-74
2022/09/30 09:02:01;;;;;;;5.68;2.88;;;20.70;99.90;;;;;;5040798;28;20056;-74
2022/09/30 09:04:29;;;;;;;4.57;3.00;;;20.70;99.90;;;;;;5056458;28;20049;-74
2022/09/30 09:07:05;;;;;;;12.23;3.30;;;20.70;99.90;;;;;;5038570;28;20045;-74
2022/09/30 09:09:38;;;;;;;;;;;20.60;99.90;;;;;;5057054;28;20045;-74
2022/09/30 09:12:15;;;;;;;9.77;3.65;;;20.60;99.90;;;;;;5054600;28;20287;-75
2022/09/30 09:14:54;;;;;;;7.47;3.53;;;20.80;99.90;;;;;;5054020;28;20049;-74
2022/09/30 09:17:33;;;;;;;8.65;2.50;;;21.00;99.90;;;;;;5063669;28;20471;-74
2022/09/30 09:20:10;;;;;;;7.88;2.70;;;21.20;99.90;;;;;;5070275;28;20056;-74
2022/09/30 09:22:38;;;;;;;26.67;6.05;;;21.30;99.90;;;;;;5067736;28;20055;-75
2022/09/30 09:25:06;;;;;;;7.90;2.85;;;21.40;99.90;;;;;;5069409;28;20053;-74
2022/09/30 09:27:43;;;;;;;4.93;2.55;;;21.40;99.90;;;;;;5066057;28;20044;-75
2022/09/30 09:30:13;;;;;;;6.55;3.30;;;21.40;99.90;;;;;;5065112;28;20063;-74
2022/09/30 09:32:42;;;;;;;9.95;3.35;;;21.50;99.90;;;;;;5066759;28;20045;-75
2022/09/30 09:35:17;;;;;;;8.90;3.17;;;21.70;99.90;;;;;;5065347;28;20314;-75
2022/09/30 09:40:55;;;;;;;7.68;2.83;;;22.10;99.90;;;;;;5027834;28;20450;-74
2022/09/30 09:43:37;;;;;;;7.00;2.58;;;22.30;99.90;;;;;;5061759;28;20052;-74
2022/09/30 09:46:15;;;;;;;8.38;3.45;;;22.40;99.90;;;;;;5064390;28;20119;-74
2022/09/30 09:48:43;;;;;;;4.72;2.60;;;22.50;99.90;;;;;;5059377;28;20047;-76
2022/09/30 09:51:21;;;;;;;5.25;1.90;;;22.60;99.90;;;;;;5056348;28;20041;-74
2022/09/30 09:53:51;;;;;;;6.47;1.80;;;22.70;99.90;;;;;;5056340;28;20496;-74
2022/09/30 09:56:20;;;;;;;7.43;2.90;;;22.70;99.90;;;;;;5059018;28;20044;-74
2022/09/30 09:59:09;;;;;;;7.80;2.90;;;22.80;99.90;;;;;;5060524;28;20052;-75
2022/09/30 10:01:39;;;;;;;9.45;4.40;;;22.90;99.90;;;;;;5056059;28;20052;-75
2022/09/30 10:04:14;;;;;;;7.03;3.67;;;22.90;99.90;;;;;;5087475;22;20048;-75
2022/09/30 10:06:49;;;;;;;9.18;4.72;;;22.90;99.90;;;;;;5074941;28;20505;-77
2022/09/30 10:09:24;;;;;;;7.37;2.97;;;23.10;99.90;;;;;;5076138;28;20052;-76
2022/09/30 10:11:52;;;;;;;5.88;2.60;;;23.20;99.90;;;;;;5075928;28;20414;-75
2022/09/30 10:14:21;;;;;;;4.75;2.05;;;23.30;99.90;;;;;;5085118;28;20098;-76
2022/09/30 10:16:49;;;;;;;8.40;2.72;;;23.40;99.90;;;;;;5078168;28;20367;-76
2022/09/30 10:19:23;;;;;;;9.18;2.30;;;23.60;99.90;;;;;;5096361;28;20040;-74
2022/09/30 10:22:15;;;;;;;6.18;3.47;;;23.50;99.90;;;;;;5083495;28;20056;-74
2022/09/30 10:24:43;;;;;;;9.18;2.70;;;23.40;99.90;;;;;;5095830;28;20048;-74
2022/09/30 10:27:27;;;;;;;9.98;2.45;;;23.20;99.90;;;;;;5095922;28;20040;-74
2022/09/30 10:29:54;;;;;;;9.55;2.80;;;23.20;99.90;;;;;;5077899;28;20130;-74
2022/09/30 10:32:23;;;;;;;7.15;3.90;;;23.20;99.90;;;;;;5098731;28;20071;-74
2022/09/30 10:34:56;;;;;;;8.32;2.80;;;23.10;99.90;;;;;;5095985;28;20399;-74
2022/09/30 10:37:25;;;;;;;16.08;7.22;;;23.00;99.90;;;;;;5097080;28;20047;-75
2022/09/30 10:39:57;;;;;;;7.75;2.97;;;22.90;99.90;;;;;;5095307;28;20483;-75
2022/09/30 10:42:27;;;;;;;12.20;4.80;;;22.90;99.90;;;;;;5094529;28;20050;-74
2022/09/30 10:44:57;;;;;;;7.85;2.20;;;22.80;99.90;;;;;;5095224;28;20388;-75
2022/09/30 10:47:26;;;;;;;8.00;3.63;;;22.80;99.90;;;;;;5095546;28;20078;-74
2022/09/30 10:49:57;;;;;;;7.65;4.07;;;22.90;99.90;;;;;;5095030;28;20051;-75
2022/09/30 10:52:30;;;;;;;8.45;4.38;;;23.00;99.90;;;;;;5076588;28;20117;-76
2022/09/30 10:55:00;;;;;;;16.45;10.70;;;23.10;99.90;;;;;;5094809;28;20098;-74
2022/09/30 10:57:28;;;;;;;10.50;4.97;;;23.20;99.90;;;;;;5094897;28;20044;-74
2022/09/30 11:00:00;;;;;;;18.00;3.88;;;23.30;99.90;;;;;;5077276;28;20044;-75
2022/09/30 11:02:35;;;;;;;16.17;5.78;;;23.40;99.90;;;;;;5076703;28;20052;-75
2022/09/30 11:05:12;;;;;;;18.65;6.43;;;23.50;99.90;;;;;;5098703;28;20052;-75
2022/09/30 11:07:46;;;;;;;13.95;4.50;;;23.50;99.90;;;;;;5098643;28;20463;-75
2022/09/30 11:10:28;;;;;;;13.88;5.43;;;23.60;99.90;;;;;;5098459;28;20051;-75
2022/09/30 11:13:02;;;;;;;15.27;5.35;;;23.70;99.90;;;;;;5099135;28;20130;-74
2022/09/30 11:15:32;;;;;;;20.00;7.13;;;23.80;99.90;;;;;;5098534;28;20044;-75
2022/09/30 11:18:05;;;;;;;17.63;9.73;;;23.90;99.90;;;;;;5097542;28;20491;-74
2022/09/30 11:20:37;;;;;;;11.07;5.10;;;24.00;99.90;;;;;;5080585;28;20048;-75
2022/09/30 11:23:14;;;;;;;13.82;4.70;;;23.90;99.90;;;;;;5099290;28;20499;-74
2022/09/30 11:25:54;;;;;;;14.48;5.82;;;23.80;99.90;;;;;;5081171;28;20044;-74
2022/09/30 11:28:42;;;;;;;14.75;4.95;;;23.80;99.90;;;;;;5098587;28;20044;-75
2022/09/30 11:31:20;;;;;;;8.82;3.70;;;23.80;99.90;;;;;;5088798;28;20044;-76
2022/09/30 11:34:01;;;;;;;14.00;4.45;;;23.80;99.90;;;;;;5104187;28;20068;-75
2022/09/30 11:36:36;;;;;;;8.85;3.95;;;23.80;99.90;;;;;;5080515;28;20083;-75
2022/09/30 11:39:36;;;;;;;9.95;3.63;;;23.80;99.90;;;;;;5097956;28;20066;-74
2022/09/30 11:42:11;;;;;;;7.32;3.80;;;23.80;99.90;;;;;;5080903;28;20048;-74
2022/09/30 11:44:42;;;;;;;10.82;6.97;;;23.90;99.90;;;;;;5099063;28;20563;-75
2022/09/30 11:47:28;;;;;;;10.13;3.63;;;24.00;99.90;;;;;;5099641;28;20047;-74
2022/09/30 11:50:08;;;;;;;14.07;6.30;;;24.00;99.90;;;;;;5080535;28;20425;-74
2022/09/30 11:52:45;;;;;;;10.90;5.50;;;24.00;99.90;;;;;;5080235;28;20111;-75
2022/09/30 11:55:32;;;;;;;11.82;4.38;;;24.00;99.90;;;;;;5097564;28;20558;-75
2022/09/30 11:58:04;;;;;;;6.65;3.65;;;24.10;99.90;;;;;;5080037;28;20036;-75
2022/09/30 12:00:35;;;;;;;8.88;4.38;;;24.10;99.90;;;;;;5079936;28;20071;-75
2022/09/30 12:03:09;;;;;;;9.55;3.72;;;24.20;99.90;;;;;;5095158;28;20045;-76
2022/09/30 12:05:41;;;;;;;8.18;3.60;;;24.30;99.90;;;;;;5078775;28;20056;-75
2022/09/30 12:08:14;;;;;;;8.02;3.90;;;24.20;99.90;;;;;;5085947;28;20052;-74
2022/09/30 12:10:50;;;;;;;9.77;3.67;;;24.30;99.90;;;;;;5097432;28;20048;-74
2022/09/30 12:13:23;;;;;;;7.07;4.55;;;24.40;99.90;;;;;;5092781;28;20040;-74
2022/09/30 12:15:54;;;;;;;12.32;6.15;;;24.60;99.90;;;;;;5109293;28;20036;-74
2022/09/30 12:18:26;;;;;;;11.48;3.58;;;24.80;99.90;;;;;;5099452;28;20410;-75
2022/09/30 12:20:57;;;;;;;7.93;3.70;;;24.90;99.50;;;;;;5090953;28;20554;-75
2022/09/30 12:23:31;;;;;;;11.93;4.10;;;25.20;99.40;;;;;;5083575;28;20119;-75
2022/09/30 12:26:02;;;;;;;8.43;2.40;;;25.40;98.80;;;;;;5098357;28;20093;-74
2022/09/30 12:31:41;;;;;;;7.68;2.65;;;25.50;95.20;;;;;;5078405;28;20075;-75
2022/09/30 12:34:25;;;;;;;8.25;3.83;;;25.50;95.30;;;;;;5079424;28;20052;-75
2022/09/30 12:37:08;;;;;;;8.60;3.28;;;25.60;94.50;;;;;;5082030;28;20082;-75
2022/09/30 12:40:02;;;;;;;11.75;4.80;;;25.80;94.40;;;;;;5090221;28;20048;-73
2022/09/30 12:42:54;;;;;;;8.32;4.30;;;25.80;94.10;;;;;;5079353;28;20053;-75
2022/09/30 12:45:50;;;;;;;10.65;3.08;;;25.70;93.70;;;;;;5091621;28;20133;-74
2022/09/30 12:48:20;;;;;;;7.43;3.08;;;25.70;94.00;;;;;;5097708;28;20040;-75
2022/09/30 12:50:51;;;;;;;6.57;3.33;;;25.60;94.30;;;;;;5078693;28;20445;-74
2022/09/30 12:53:23;;;;;;;8.88;4.47;;;25.60;95.70;;;;;;5076553;28;20470;-76
2022/09/30 12:55:52;;;;;;;7.70;3.97;;;25.60;97.00;;;;;;5086338;28;20044;-75
2022/09/30 12:58:24;;;;;;;8.18;3.92;;;25.80;96.30;;;;;;5117676;28;20047;-74
2022/09/30 13:01:04;;;;;;;5.40;2.80;;;25.80;97.00;;;;;;5120072;28;20039;-75
2022/09/30 13:03:46;;;;;;;6.43;2.40;;;25.70;95.20;;;;;;5117777;28;20067;-73
2022/09/30 13:06:15;;;;;;;7.20;4.30;;;25.60;93.60;;;;;;5117900;28;20048;-74
2022/09/30 13:08:46;;;;;;;28.88;19.35;;;25.40;92.70;;;;;;5117730;28;20159;-74
2022/09/30 13:11:40;;;;;;;15.65;11.30;;;25.20;92.30;;;;;;5107668;28;20040;-74
2022/09/30 13:14:24;;;;;;;10.75;2.60;;;25.10;92.40;;;;;;5068021;28;20052;-74
2022/09/30 13:17:14;;;;;;;9.00;2.72;;;25.10;92.40;;;;;;5093257;28;20100;-74